Grovetown, Georgia
Current Conditions -  °F | °C
As of 7:53 AM on Saturday 20 Dec 2014 (Local Time) from KDNL Reporting Station
Light Rain Light Rain  
Wind Chill: 47°   Ceiling: 8500
Heat Index: 49°   Visibility: 6mi
Dew Point: 47°   Wind: 6mph
Humidity: 93%   Direction: 100°E
Pressure: 30.19"   Gusts: NA
Location:  33.45°N, 82.2°W
Report Text: KDNL 201253Z AUTO 10005KT 6SM -RA BR OVC085 09/08 A3019 RMK AO2 SLP221 P0004 T00940083
Loading
Personal Weather Stations






























Interactive Weather Map New forecast layout! Learn more

10-Day Weather Forecast

Advertisements
Track Severe Weather on mobile